createdAt,value
2022-10-29T00:01:17.260Z,4.33
2022-10-29T00:06:37.473Z,4.50
2022-10-29T00:11:57.630Z,3.90
2022-10-29T00:17:17.784Z,3.63
2022-10-29T00:22:38.079Z,4.30
2022-10-29T00:27:58.168Z,4.27
2022-10-29T00:38:43.791Z,4.30
2022-10-29T00:44:03.943Z,3.50
2022-10-29T00:49:24.162Z,3.90
2022-10-29T00:54:44.290Z,4.77
2022-10-29T01:00:04.465Z,3.57
2022-10-29T01:05:24.549Z,4.30
2022-10-29T01:10:44.685Z,4.67
2022-10-29T01:16:04.765Z,3.80
2022-10-29T01:21:24.900Z,4.30
2022-10-29T01:26:45.173Z,4.10
2022-10-29T01:32:05.163Z,4.27
2022-10-29T01:37:25.362Z,4.20
2022-10-29T01:42:45.532Z,4.40
2022-10-29T01:48:05.709Z,4.43
2022-10-29T01:53:25.831Z,3.83
2022-10-29T01:58:45.998Z,4.40
2022-10-29T02:04:06.105Z,3.90
2022-10-29T02:09:26.394Z,4.43
2022-10-29T02:14:46.455Z,4.60
2022-10-29T02:20:06.576Z,4.23
2022-10-29T02:25:26.608Z,4.57
2022-10-29T02:30:46.723Z,3.97
2022-10-29T02:36:07.701Z,5.00
2022-10-29T02:41:27.839Z,4.30
2022-10-29T02:46:48.028Z,5.00
2022-10-29T02:52:08.200Z,4.90
2022-10-29T02:57:28.264Z,5.03
2022-10-29T03:02:48.497Z,4.80
2022-10-29T03:08:08.562Z,4.73
2022-10-29T03:13:28.697Z,4.40
2022-10-29T03:18:48.768Z,4.60
2022-10-29T03:24:09.104Z,4.47
2022-10-29T03:29:29.214Z,4.50
2022-10-29T03:34:49.395Z,4.80
2022-10-29T03:40:09.512Z,4.80
2022-10-29T03:45:29.782Z,5.60
2022-10-29T03:50:49.762Z,4.60
2022-10-29T03:56:09.974Z,4.70
2022-10-29T04:01:30.556Z,4.00
2022-10-29T04:06:50.656Z,4.93
2022-10-29T04:12:10.598Z,5.30
2022-10-29T04:17:30.898Z,3.67
2022-10-29T04:28:43.055Z,5.33
2022-10-29T04:34:03.551Z,4.60
2022-10-29T04:39:23.787Z,4.50
2022-10-29T04:44:43.809Z,4.37
2022-10-29T04:50:04.049Z,4.70
2022-10-29T04:55:24.101Z,4.50
2022-10-29T05:00:44.373Z,4.63
2022-10-29T05:06:04.724Z,5.13
2022-10-29T05:11:25.822Z,4.00
2022-10-29T05:16:46.027Z,5.07
2022-10-29T05:22:06.340Z,4.20
2022-10-29T05:27:26.446Z,5.00
2022-10-29T05:32:46.560Z,4.40
2022-10-29T05:38:06.765Z,5.67
2022-10-29T05:43:26.968Z,5.23
2022-10-29T05:48:47.094Z,5.17
2022-10-29T05:54:07.477Z,4.90
2022-10-29T05:59:32.594Z,4.70
2022-10-29T06:04:53.768Z,5.93
2022-10-29T06:10:13.856Z,6.50
2022-10-29T06:15:33.899Z,5.63
2022-10-29T06:20:54.051Z,5.63
2022-10-29T06:26:14.192Z,5.30
2022-10-29T06:31:34.373Z,5.80
2022-10-29T06:36:54.647Z,4.50
2022-10-29T06:42:14.975Z,4.60
2022-10-29T06:47:35.111Z,4.87
2022-10-29T06:52:55.490Z,4.40
2022-10-29T06:58:15.669Z,4.80
2022-10-29T07:03:35.771Z,4.90
2022-10-29T07:08:56.010Z,5.23
2022-10-29T07:14:16.023Z,5.50
2022-10-29T07:19:36.206Z,5.40
2022-10-29T07:24:58.661Z,4.87
2022-10-29T07:30:21.437Z,4.83
2022-10-29T07:35:41.526Z,4.90
2022-10-29T07:41:01.605Z,5.20
2022-10-29T07:46:21.705Z,5.70
2022-10-29T07:51:41.832Z,6.10
2022-10-29T07:57:02.032Z,5.20
2022-10-29T08:02:21.988Z,4.80
2022-10-29T08:07:42.187Z,5.33
2022-10-29T08:13:02.373Z,5.20
2022-10-29T08:18:22.310Z,6.67
2022-10-29T08:23:42.450Z,4.90
2022-10-29T08:29:02.794Z,5.53
2022-10-29T08:34:22.884Z,5.90
2022-10-29T08:39:43.209Z,4.83
2022-10-29T08:45:03.248Z,5.37
2022-10-29T08:50:23.458Z,4.87
2022-10-29T08:55:43.560Z,5.37
2022-10-29T09:01:04.016Z,5.23
2022-10-29T09:06:24.083Z,5.50
2022-10-29T09:11:44.400Z,4.80
2022-10-29T09:17:04.549Z,4.73
2022-10-29T09:22:24.659Z,4.63
2022-10-29T09:27:44.677Z,5.07
2022-10-29T09:33:04.890Z,4.97
2022-10-29T09:38:24.938Z,5.50
2022-10-29T09:43:44.996Z,5.20
2022-10-29T09:54:29.878Z,5.50
2022-10-29T09:59:49.931Z,4.93
2022-10-29T10:05:10.107Z,4.87
2022-10-29T10:10:30.212Z,4.83
2022-10-29T10:15:50.349Z,4.30
2022-10-29T10:21:10.479Z,5.53
2022-10-29T10:26:30.929Z,4.50
2022-10-29T10:31:50.970Z,4.60
2022-10-29T10:37:11.055Z,4.93
2022-10-29T10:42:31.158Z,4.90
2022-10-29T10:47:51.229Z,4.67
2022-10-29T10:53:11.318Z,3.87
2022-10-29T10:58:31.529Z,4.40
2022-10-29T11:03:51.565Z,5.57
2022-10-29T11:09:11.822Z,4.40
2022-10-29T11:14:31.915Z,4.57
2022-10-29T11:19:52.099Z,4.43
2022-10-29T11:25:12.266Z,4.43
2022-10-29T11:30:32.381Z,3.97
2022-10-29T11:35:54.022Z,4.90
2022-10-29T11:41:16.144Z,5.00
2022-10-29T11:46:36.250Z,5.77
2022-10-29T11:51:56.492Z,4.40
2022-10-29T11:57:16.577Z,4.30
2022-10-29T12:02:36.754Z,4.60
2022-10-29T12:07:57.135Z,4.70
2022-10-29T12:13:17.448Z,6.10
2022-10-29T12:18:37.483Z,4.73
2022-10-29T12:23:57.622Z,4.67
2022-10-29T12:29:17.699Z,5.07
2022-10-29T12:34:37.982Z,5.20
2022-10-29T12:39:58.115Z,5.33
2022-10-29T12:45:18.830Z,4.63
2022-10-29T12:50:38.959Z,5.00
2022-10-29T12:55:59.137Z,4.40
2022-10-29T13:01:19.367Z,5.17
2022-10-29T13:06:39.487Z,5.80
2022-10-29T13:12:00.198Z,4.47
2022-10-29T13:17:20.633Z,5.57
2022-10-29T13:22:40.701Z,5.97
2022-10-29T13:28:03.042Z,5.60
2022-10-29T13:33:23.041Z,4.87
2022-10-29T13:38:52.363Z,5.00
2022-10-29T13:44:23.124Z,4.83
2022-10-29T13:49:43.304Z,4.83
2022-10-29T13:55:03.535Z,4.80
2022-10-29T14:00:26.764Z,4.83
2022-10-29T14:05:46.970Z,5.00
2022-10-29T14:11:08.485Z,5.33
2022-10-29T14:16:30.864Z,5.30
2022-10-29T14:21:51.019Z,5.57
2022-10-29T14:27:11.231Z,5.57
2022-10-29T14:32:31.461Z,4.60
2022-10-29T14:37:51.558Z,4.80
2022-10-29T14:43:11.765Z,5.30
2022-10-29T14:48:31.974Z,5.57
2022-10-29T14:53:51.716Z,5.13
2022-10-29T14:59:11.863Z,5.83
2022-10-29T15:04:32.017Z,6.03
2022-10-29T15:09:52.107Z,9.00
2022-10-29T15:15:12.395Z,6.60
2022-10-29T15:20:32.546Z,6.83
2022-10-29T15:25:52.541Z,6.27
2022-10-29T15:31:12.563Z,7.07
2022-10-29T15:36:32.604Z,8.03
2022-10-29T15:41:52.904Z,7.07
2022-10-29T15:47:12.963Z,8.07
2022-10-29T15:52:33.166Z,6.70
2022-10-29T15:57:53.247Z,6.90
2022-10-29T16:03:13.508Z,8.10
2022-10-29T16:08:33.591Z,8.53
2022-10-29T16:13:55.193Z,8.17
2022-10-29T16:19:15.597Z,7.23
2022-10-29T16:24:35.743Z,7.83
2022-10-29T16:29:55.905Z,10.60
2022-10-29T16:35:16.135Z,8.00
2022-10-29T16:40:36.263Z,7.90
2022-10-29T16:45:58.533Z,9.27
2022-10-29T16:51:21.201Z,8.37
2022-10-29T16:56:41.299Z,8.47
2022-10-29T17:02:01.376Z,13.63
2022-10-29T17:07:21.515Z,23.73
2022-10-29T17:12:41.641Z,16.00
2022-10-29T17:18:02.145Z,14.13
2022-10-29T17:23:22.440Z,10.70
2022-10-29T17:28:42.802Z,9.80
2022-10-29T17:34:02.948Z,13.53
2022-10-29T17:39:22.926Z,22.00
2022-10-29T17:44:43.176Z,22.90
2022-10-29T17:50:03.169Z,22.80
2022-10-29T17:55:23.507Z,22.30
2022-10-29T18:00:43.563Z,20.70
2022-10-29T18:06:04.298Z,18.60
2022-10-29T18:11:25.538Z,17.00
2022-10-29T18:16:45.445Z,15.50
2022-10-29T18:22:05.536Z,15.13
2022-10-29T18:27:25.945Z,15.60
2022-10-29T18:32:46.162Z,12.60
2022-10-29T18:38:06.363Z,12.23
2022-10-29T18:43:26.550Z,11.30
2022-10-29T18:48:46.914Z,10.27
2022-10-29T18:54:07.381Z,10.63
2022-10-29T18:59:27.421Z,9.93
2022-10-29T19:04:47.626Z,9.67
2022-10-29T19:10:07.814Z,8.50
2022-10-29T19:15:27.995Z,9.97
2022-10-29T19:20:48.192Z,8.37
2022-10-29T19:26:08.277Z,8.73
2022-10-29T19:31:28.380Z,9.17
2022-10-29T19:36:48.564Z,8.90
2022-10-29T19:42:08.725Z,7.90
2022-10-29T19:47:28.708Z,8.73
2022-10-29T19:52:48.822Z,7.83
2022-10-29T19:58:08.930Z,8.13
2022-10-29T20:03:29.216Z,7.70
2022-10-29T20:08:49.356Z,7.80
2022-10-29T20:14:09.533Z,7.80
2022-10-29T20:19:29.685Z,7.13
2022-10-29T20:24:49.823Z,6.03
2022-10-29T20:30:10.132Z,8.20
2022-10-29T20:35:30.323Z,7.50
2022-10-29T20:40:50.532Z,6.70
2022-10-29T20:46:10.601Z,6.60
2022-10-29T20:51:30.908Z,6.40
2022-10-29T20:56:50.974Z,6.70
2022-10-29T21:02:11.269Z,5.87
2022-10-29T21:07:31.303Z,6.57
2022-10-29T21:12:51.478Z,6.40
2022-10-29T21:18:11.508Z,6.23
2022-10-29T21:23:31.645Z,6.23
2022-10-29T21:28:51.834Z,6.77
2022-10-29T21:34:11.981Z,6.63
2022-10-29T21:39:32.105Z,7.27
2022-10-29T21:44:52.348Z,6.20
2022-10-29T21:50:12.542Z,5.90
2022-10-29T21:55:32.725Z,6.53
2022-10-29T22:00:52.779Z,6.40
2022-10-29T22:06:12.902Z,5.80
2022-10-29T22:11:32.951Z,5.83
2022-10-29T22:16:53.154Z,7.50
2022-10-29T22:22:13.344Z,6.83
2022-10-29T22:27:33.537Z,6.90
2022-10-29T22:32:53.530Z,7.13
2022-10-29T22:38:13.714Z,5.80
2022-10-29T22:43:33.781Z,6.40
2022-10-29T22:48:53.911Z,6.07
2022-10-29T22:54:14.050Z,5.60
2022-10-29T22:59:34.381Z,6.27
2022-10-29T23:04:54.482Z,7.23
2022-10-29T23:10:14.729Z,6.07
2022-10-29T23:15:35.022Z,7.10
2022-10-29T23:20:55.083Z,6.27
2022-10-29T23:26:15.320Z,5.97
2022-10-29T23:31:35.410Z,6.70
2022-10-29T23:36:55.646Z,5.80
2022-10-29T23:42:15.743Z,5.30
2022-10-29T23:47:35.771Z,6.97
2022-10-29T23:52:56.269Z,5.50
2022-10-29T23:58:16.580Z,5.60
